sensor_id;sensor_type;location;lat;lon;timestamp;temperature;humidity
70321;DHT22;61127;55.826;37.046;2023-06-14T00:01:47;12.49;51.29
70321;DHT22;61127;55.826;37.046;2023-06-14T00:04:14;12.47;51.75
70321;DHT22;61127;55.826;37.046;2023-06-14T00:06:44;12.45;51.99
70321;DHT22;61127;55.826;37.046;2023-06-14T00:09:16;12.44;51.23
70321;DHT22;61127;55.826;37.046;2023-06-14T00:11:43;12.41;51.74
70321;DHT22;61127;55.826;37.046;2023-06-14T00:14:10;12.40;51.65
70321;DHT22;61127;55.826;37.046;2023-06-14T00:16:36;12.37;51.46
70321;DHT22;61127;55.826;37.046;2023-06-14T00:19:04;12.36;51.63
70321;DHT22;61127;55.826;37.046;2023-06-14T00:21:31;12.34;51.53
70321;DHT22;61127;55.826;37.046;2023-06-14T00:23:58;12.34;51.57
70321;DHT22;61127;55.826;37.046;2023-06-14T00:26:24;12.33;51.74
70321;DHT22;61127;55.826;37.046;2023-06-14T00:28:54;12.32;51.81
70321;DHT22;61127;55.826;37.046;2023-06-14T00:31:20;12.30;51.66
70321;DHT22;61127;55.826;37.046;2023-06-14T00:33:46;12.29;51.76
70321;DHT22;61127;55.826;37.046;2023-06-14T00:36:12;12.25;51.79
70321;DHT22;61127;55.826;37.046;2023-06-14T00:38:38;12.22;52.01
70321;DHT22;61127;55.826;37.046;2023-06-14T00:41:04;12.21;51.95
70321;DHT22;61127;55.826;37.046;2023-06-14T00:43:30;12.19;51.98
70321;DHT22;61127;55.826;37.046;2023-06-14T00:45:56;12.17;52.04
70321;DHT22;61127;55.826;37.046;2023-06-14T00:48:23;12.16;52.07
70321;DHT22;61127;55.826;37.046;2023-06-14T00:50:50;12.16;52.43
70321;DHT22;61127;55.826;37.046;2023-06-14T00:53:18;12.15;52.40
70321;DHT22;61127;55.826;37.046;2023-06-14T00:55:47;12.14;52.47
70321;DHT22;61127;55.826;37.046;2023-06-14T00:58:17;12.12;52.68
70321;DHT22;61127;55.826;37.046;2023-06-14T01:00:59;12.10;53.31
70321;DHT22;61127;55.826;37.046;2023-06-14T01:03:25;12.08;53.02
70321;DHT22;61127;55.826;37.046;2023-06-14T01:06:02;12.06;53.41
70321;DHT22;61127;55.826;37.046;2023-06-14T01:08:50;12.04;53.88
70321;DHT22;61127;55.826;37.046;2023-06-14T01:11:26;12.00;53.69
70321;DHT22;61127;55.826;37.046;2023-06-14T01:13:56;12.00;53.70
70321;DHT22;61127;55.826;37.046;2023-06-14T01:16:22;11.98;53.69
70321;DHT22;61127;55.826;37.046;2023-06-14T01:18:52;11.97;54.01
70321;DHT22;61127;55.826;37.046;2023-06-14T01:21:23;11.94;53.97
70321;DHT22;61127;55.826;37.046;2023-06-14T01:23:50;11.93;54.07
70321;DHT22;61127;55.826;37.046;2023-06-14T01:26:22;11.94;53.76
70321;DHT22;61127;55.826;37.046;2023-06-14T01:28:49;11.94;53.68
70321;DHT22;61127;55.826;37.046;2023-06-14T01:31:20;11.97;53.78
70321;DHT22;61127;55.826;37.046;2023-06-14T01:33:49;12.00;53.72
70321;DHT22;61127;55.826;37.046;2023-06-14T01:36:18;12.02;53.75
70321;DHT22;61127;55.826;37.046;2023-06-14T01:38:46;12.04;53.44
70321;DHT22;61127;55.826;37.046;2023-06-14T01:41:15;12.08;53.54
70321;DHT22;61127;55.826;37.046;2023-06-14T01:43:42;12.14;53.50
70321;DHT22;61127;55.826;37.046;2023-06-14T01:46:09;12.16;53.50
70321;DHT22;61127;55.826;37.046;2023-06-14T01:48:36;12.21;53.39
70321;DHT22;61127;55.826;37.046;2023-06-14T01:51:03;12.27;53.36
70321;DHT22;61127;55.826;37.046;2023-06-14T01:53:29;12.31;53.34
70321;DHT22;61127;55.826;37.046;2023-06-14T01:55:55;12.35;53.05
70321;DHT22;61127;55.826;37.046;2023-06-14T01:58:22;12.40;52.95
70321;DHT22;61127;55.826;37.046;2023-06-14T02:00:49;12.47;52.84
70321;DHT22;61127;55.826;37.046;2023-06-14T02:03:16;12.53;53.04
70321;DHT22;61127;55.826;37.046;2023-06-14T02:05:45;12.61;52.81
70321;DHT22;61127;55.826;37.046;2023-06-14T02:08:11;12.65;52.78
70321;DHT22;61127;55.826;37.046;2023-06-14T02:10:37;12.72;52.72
70321;DHT22;61127;55.826;37.046;2023-06-14T02:13:03;12.79;52.75
70321;DHT22;61127;55.826;37.046;2023-06-14T02:15:29;12.85;52.54
70321;DHT22;61127;55.826;37.046;2023-06-14T02:18:01;12.91;52.49
70321;DHT22;61127;55.826;37.046;2023-06-14T02:20:28;12.97;52.46
70321;DHT22;61127;55.826;37.046;2023-06-14T02:22:56;13.04;52.55
70321;DHT22;61127;55.826;37.046;2023-06-14T02:25:22;13.09;52.56
70321;DHT22;61127;55.826;37.046;2023-06-14T02:27:48;13.15;52.91
70321;DHT22;61127;55.826;37.046;2023-06-14T02:30:15;13.20;52.62
70321;DHT22;61127;55.826;37.046;2023-06-14T02:32:41;13.26;52.37
70321;DHT22;61127;55.826;37.046;2023-06-14T02:35:08;13.33;52.18
70321;DHT22;61127;55.826;37.046;2023-06-14T02:37:35;13.38;51.95
70321;DHT22;61127;55.826;37.046;2023-06-14T02:40:02;13.46;51.99
70321;DHT22;61127;55.826;37.046;2023-06-14T02:42:31;13.55;52.17
70321;DHT22;61127;55.826;37.046;2023-06-14T02:44:57;13.60;52.33
70321;DHT22;61127;55.826;37.046;2023-06-14T02:47:23;13.69;51.80
70321;DHT22;61127;55.826;37.046;2023-06-14T02:49:50;13.76;52.19
70321;DHT22;61127;55.826;37.046;2023-06-14T02:52:17;13.83;51.97
70321;DHT22;61127;55.826;37.046;2023-06-14T02:54:43;13.91;52.04
70321;DHT22;61127;55.826;37.046;2023-06-14T02:57:10;13.97;51.56
70321;DHT22;61127;55.826;37.046;2023-06-14T02:59:37;14.05;51.36
70321;DHT22;61127;55.826;37.046;2023-06-14T03:02:05;14.12;51.35
70321;DHT22;61127;55.826;37.046;2023-06-14T03:04:33;14.18;51.25
70321;DHT22;61127;55.826;37.046;2023-06-14T03:07:07;14.28;50.99
70321;DHT22;61127;55.826;37.046;2023-06-14T03:09:39;14.38;51.27
70321;DHT22;61127;55.826;37.046;2023-06-14T03:12:08;14.44;51.06
70321;DHT22;61127;55.826;37.046;2023-06-14T03:14:35;14.52;51.27
70321;DHT22;61127;55.826;37.046;2023-06-14T03:17:03;14.59;51.10
70321;DHT22;61127;55.826;37.046;2023-06-14T03:19:31;14.67;50.01
70321;DHT22;61127;55.826;37.046;2023-06-14T03:21:57;14.75;50.66
70321;DHT22;61127;55.826;37.046;2023-06-14T03:24:25;14.83;50.36
70321;DHT22;61127;55.826;37.046;2023-06-14T03:26:55;14.93;50.40
70321;DHT22;61127;55.826;37.046;2023-06-14T03:29:23;15.00;50.69
70321;DHT22;61127;55.826;37.046;2023-06-14T03:31:59;15.09;49.79
70321;DHT22;61127;55.826;37.046;2023-06-14T03:34:33;15.18;50.31
70321;DHT22;61127;55.826;37.046;2023-06-14T03:36:59;15.24;50.25
70321;DHT22;61127;55.826;37.046;2023-06-14T03:39:25;15.32;49.94
70321;DHT22;61127;55.826;37.046;2023-06-14T03:41:51;15.41;50.02
70321;DHT22;61127;55.826;37.046;2023-06-14T03:44:18;15.48;50.16
70321;DHT22;61127;55.826;37.046;2023-06-14T03:46:46;15.58;50.38
70321;DHT22;61127;55.826;37.046;2023-06-14T03:49:13;15.66;50.02
70321;DHT22;61127;55.826;37.046;2023-06-14T03:51:39;15.73;49.79
70321;DHT22;61127;55.826;37.046;2023-06-14T03:54:06;15.83;48.99
70321;DHT22;61127;55.826;37.046;2023-06-14T03:56:33;15.92;49.46
70321;DHT22;61127;55.826;37.046;2023-06-14T03:59:00;16.02;49.37
70321;DHT22;61127;55.826;37.046;2023-06-14T04:01:28;16.12;49.26
70321;DHT22;61127;55.826;37.046;2023-06-14T04:03:58;16.18;48.57
70321;DHT22;61127;55.826;37.046;2023-06-14T04:06:25;16.29;48.88
70321;DHT22;61127;55.826;37.046;2023-06-14T04:08:59;16.39;49.14
70321;DHT22;61127;55.826;37.046;2023-06-14T04:11:30;16.49;49.14
70321;DHT22;61127;55.826;37.046;2023-06-14T04:13:58;16.60;48.01
70321;DHT22;61127;55.826;37.046;2023-06-14T04:16:26;16.71;48.21
70321;DHT22;61127;55.826;37.046;2023-06-14T04:18:54;16.85;48.66
70321;DHT22;61127;55.826;37.046;2023-06-14T04:21:22;16.96;47.56
70321;DHT22;61127;55.826;37.046;2023-06-14T04:23:52;17.06;47.06
70321;DHT22;61127;55.826;37.046;2023-06-14T04:26:22;17.16;46.67
70321;DHT22;61127;55.826;37.046;2023-06-14T04:28:51;17.25;46.19
70321;DHT22;61127;55.826;37.046;2023-06-14T04:31:17;17.36;46.54
70321;DHT22;61127;55.826;37.046;2023-06-14T04:33:45;17.50;46.97
70321;DHT22;61127;55.826;37.046;2023-06-14T04:36:17;17.69;46.66
70321;DHT22;61127;55.826;37.046;2023-06-14T04:38:46;17.84;45.84
70321;DHT22;61127;55.826;37.046;2023-06-14T04:41:13;18.03;45.68
70321;DHT22;61127;55.826;37.046;2023-06-14T04:43:42;18.19;45.38
70321;DHT22;61127;55.826;37.046;2023-06-14T04:46:09;18.40;44.83
70321;DHT22;61127;55.826;37.046;2023-06-14T04:48:38;0.00;44.96
70321;DHT22;61127;55.826;37.046;2023-06-14T04:51:08;18.82;44.88
70321;DHT22;61127;55.826;37.046;2023-06-14T04:53:35;19.02;44.08
70321;DHT22;61127;55.826;37.046;2023-06-14T04:56:01;19.22;43.88
70321;DHT22;61127;55.826;37.046;2023-06-14T04:58:30;19.37;43.08
70321;DHT22;61127;55.826;37.046;2023-06-14T05:00:56;19.45;42.72
70321;DHT22;61127;55.826;37.046;2023-06-14T05:03:22;19.63;42.78
70321;DHT22;61127;55.826;37.046;2023-06-14T05:05:50;19.86;42.35
70321;DHT22;61127;55.826;37.046;2023-06-14T05:08:17;20.12;42.60
70321;DHT22;61127;55.826;37.046;2023-06-14T05:10:43;20.36;41.50
70321;DHT22;61127;55.826;37.046;2023-06-14T05:13:09;20.60;41.46
70321;DHT22;61127;55.826;37.046;2023-06-14T05:15:36;20.81;41.07
70321;DHT22;61127;55.826;37.046;2023-06-14T05:18:03;21.07;39.89
70321;DHT22;61127;55.826;37.046;2023-06-14T05:20:28;21.24;39.33
70321;DHT22;61127;55.826;37.046;2023-06-14T05:22:55;21.43;39.46
70321;DHT22;61127;55.826;37.046;2023-06-14T05:25:22;21.50;37.70
70321;DHT22;61127;55.826;37.046;2023-06-14T05:27:49;21.62;38.48
70321;DHT22;61127;55.826;37.046;2023-06-14T05:30:15;21.79;36.28
70321;DHT22;61127;55.826;37.046;2023-06-14T05:32:41;21.95;37.27
70321;DHT22;61127;55.826;37.046;2023-06-14T05:35:08;22.21;36.56
70321;DHT22;61127;55.826;37.046;2023-06-14T05:37:34;0.00;0.00
70321;DHT22;61127;55.826;37.046;2023-06-14T05:40:00;0.00;0.00
70321;DHT22;61127;55.826;37.046;2023-06-14T05:42:26;0.00;0.00
70321;DHT22;61127;55.826;37.046;2023-06-14T05:44:53;0.00;0.00
70321;DHT22;61127;55.826;37.046;2023-06-14T05:47:19;0.00;0.00
70321;DHT22;61127;55.826;37.046;2023-06-14T05:49:45;0.00;0.00
70321;DHT22;61127;55.826;37.046;2023-06-14T05:55:41;0.00;0.00
70321;DHT22;61127;55.826;37.046;2023-06-14T05:58:13;0.00;0.00
70321;DHT22;61127;55.826;37.046;2023-06-14T06:00:39;0.00;0.00
70321;DHT22;61127;55.826;37.046;2023-06-14T06:03:05;0.00;0.00
70321;DHT22;61127;55.826;37.046;2023-06-14T06:05:34;0.00;0.00
70321;DHT22;61127;55.826;37.046;2023-06-14T06:08:00;0.00;0.00
70321;DHT22;61127;55.826;37.046;2023-06-14T06:10:26;0.00;0.00
70321;DHT22;61127;55.826;37.046;2023-06-14T06:12:52;0.00;0.00
70321;DHT22;61127;55.826;37.046;2023-06-14T06:15:20;0.00;0.00
70321;DHT22;61127;55.826;37.046;2023-06-14T06:17:46;0.00;0.00
70321;DHT22;61127;55.826;37.046;2023-06-14T06:20:12;0.00;0.00
70321;DHT22;61127;55.826;37.046;2023-06-14T06:22:39;0.00;0.00
70321;DHT22;61127;55.826;37.046;2023-06-14T06:25:05;0.00;0.00
70321;DHT22;61127;55.826;37.046;2023-06-14T06:27:32;0.00;0.00
70321;DHT22;61127;55.826;37.046;2023-06-14T06:29:58;0.00;0.00
70321;DHT22;61127;55.826;37.046;2023-06-14T06:32:24;0.00;0.00
70321;DHT22;61127;55.826;37.046;2023-06-14T06:34:51;25.88;27.62
70321;DHT22;61127;55.826;37.046;2023-06-14T06:37:17;26.13;28.09
70321;DHT22;61127;55.826;37.046;2023-06-14T06:39:44;26.26;26.42
70321;DHT22;61127;55.826;37.046;2023-06-14T06:42:09;26.61;28.58
70321;DHT22;61127;55.826;37.046;2023-06-14T06:44:37;26.77;24.48
70321;DHT22;61127;55.826;37.046;2023-06-14T06:47:03;26.95;26.30
70321;DHT22;61127;55.826;37.046;2023-06-14T06:49:29;27.30;27.23
70321;DHT22;61127;55.826;37.046;2023-06-14T06:52:06;27.66;24.99
70321;DHT22;61127;55.826;37.046;2023-06-14T06:54:33;27.96;26.25
70321;DHT22;61127;55.826;37.046;2023-06-14T06:56:59;27.93;24.46
70321;DHT22;61127;55.826;37.046;2023-06-14T06:59:25;27.86;24.19
70321;DHT22;61127;55.826;37.046;2023-06-14T07:01:51;28.06;24.95
70321;DHT22;61127;55.826;37.046;2023-06-14T07:04:17;28.29;23.99
70321;DHT22;61127;55.826;37.046;2023-06-14T07:06:43;28.45;24.03
70321;DHT22;61127;55.826;37.046;2023-06-14T07:09:09;28.62;22.76
70321;DHT22;61127;55.826;37.046;2023-06-14T07:11:40;28.83;24.95
70321;DHT22;61127;55.826;37.046;2023-06-14T07:14:06;0.00;20.92
70321;DHT22;61127;55.826;37.046;2023-06-14T07:16:32;29.08;22.50
70321;DHT22;61127;55.826;37.046;2023-06-14T07:18:59;29.36;20.80
70321;DHT22;61127;55.826;37.046;2023-06-14T07:21:26;29.63;21.98
70321;DHT22;61127;55.826;37.046;2023-06-14T07:23:53;29.85;22.75
70321;DHT22;61127;55.826;37.046;2023-06-14T07:26:19;30.12;22.64
70321;DHT22;61127;55.826;37.046;2023-06-14T07:28:46;30.36;20.57
70321;DHT22;61127;55.826;37.046;2023-06-14T07:31:13;30.42;21.18
70321;DHT22;61127;55.826;37.046;2023-06-14T07:33:40;30.51;20.41
70321;DHT22;61127;55.826;37.046;2023-06-14T07:36:06;30.33;19.93
70321;DHT22;61127;55.826;37.046;2023-06-14T07:38:32;30.16;20.73
70321;DHT22;61127;55.826;37.046;2023-06-14T07:40:57;30.06;20.27
70321;DHT22;61127;55.826;37.046;2023-06-14T07:43:24;29.94;18.67
70321;DHT22;61127;55.826;37.046;2023-06-14T07:45:49;30.09;19.08
70321;DHT22;61127;55.826;37.046;2023-06-14T07:48:16;30.28;20.05
70321;DHT22;61127;55.826;37.046;2023-06-14T07:50:42;30.37;19.88
70321;DHT22;61127;55.826;37.046;2023-06-14T07:53:08;30.59;18.50
70321;DHT22;61127;55.826;37.046;2023-06-14T07:55:34;31.01;20.05
70321;DHT22;61127;55.826;37.046;2023-06-14T07:58:03;31.36;18.58
70321;DHT22;61127;55.826;37.046;2023-06-14T08:00:29;31.83;19.31
70321;DHT22;61127;55.826;37.046;2023-06-14T08:02:56;31.88;18.77
70321;DHT22;61127;55.826;37.046;2023-06-14T08:05:24;32.33;18.57
70321;DHT22;61127;55.826;37.046;2023-06-14T08:07:51;32.70;18.12
70321;DHT22;61127;55.826;37.046;2023-06-14T08:10:17;33.15;18.11
70321;DHT22;61127;55.826;37.046;2023-06-14T08:12:45;33.50;16.16
70321;DHT22;61127;55.826;37.046;2023-06-14T08:15:11;33.81;16.45
70321;DHT22;61127;55.826;37.046;2023-06-14T08:17:37;33.91;16.81
70321;DHT22;61127;55.826;37.046;2023-06-14T08:20:03;34.04;16.54
70321;DHT22;61127;55.826;37.046;2023-06-14T08:22:31;34.40;15.02
70321;DHT22;61127;55.826;37.046;2023-06-14T08:25:00;34.35;14.76
70321;DHT22;61127;55.826;37.046;2023-06-14T08:27:30;34.36;15.15
70321;DHT22;61127;55.826;37.046;2023-06-14T08:29:56;34.82;15.28
70321;DHT22;61127;55.826;37.046;2023-06-14T08:32:22;35.37;15.05
70321;DHT22;61127;55.826;37.046;2023-06-14T08:34:49;36.24;16.03
70321;DHT22;61127;55.826;37.046;2023-06-14T08:37:15;36.87;15.42
70321;DHT22;61127;55.826;37.046;2023-06-14T08:39:41;37.15;13.17
70321;DHT22;61127;55.826;37.046;2023-06-14T08:42:09;36.99;10.62
70321;DHT22;61127;55.826;37.046;2023-06-14T08:44:36;37.29;12.70
70321;DHT22;61127;55.826;37.046;2023-06-14T08:47:02;37.80;13.96
70321;DHT22;61127;55.826;37.046;2023-06-14T08:49:32;37.44;13.28
70321;DHT22;61127;55.826;37.046;2023-06-14T08:52:00;36.70;12.32
70321;DHT22;61127;55.826;37.046;2023-06-14T08:54:28;36.66;12.51
70321;DHT22;61127;55.826;37.046;2023-06-14T08:56:59;37.14;10.89
70321;DHT22;61127;55.826;37.046;2023-06-14T08:59:28;37.51;11.43
70321;DHT22;61127;55.826;37.046;2023-06-14T09:01:56;37.51;13.61
70321;DHT22;61127;55.826;37.046;2023-06-14T09:04:23;37.38;7.76
70321;DHT22;61127;55.826;37.046;2023-06-14T09:06:56;37.30;12.19
70321;DHT22;61127;55.826;37.046;2023-06-14T09:09:22;37.72;12.08
70321;DHT22;61127;55.826;37.046;2023-06-14T09:11:52;38.66;10.77
70321;DHT22;61127;55.826;37.046;2023-06-14T09:14:19;39.12;10.72
70321;DHT22;61127;55.826;37.046;2023-06-14T09:16:45;39.34;11.47
70321;DHT22;61127;55.826;37.046;2023-06-14T09:19:22;40.13;10.11
70321;DHT22;61127;55.826;37.046;2023-06-14T09:21:49;40.72;6.61
70321;DHT22;61127;55.826;37.046;2023-06-14T09:24:15;41.16;11.11
70321;DHT22;61127;55.826;37.046;2023-06-14T09:26:41;41.48;11.06
70321;DHT22;61127;55.826;37.046;2023-06-14T09:29:09;41.41;10.51
70321;DHT22;61127;55.826;37.046;2023-06-14T09:31:35;41.42;10.16
70321;DHT22;61127;55.826;37.046;2023-06-14T09:34:02;42.13;9.92
70321;DHT22;61127;55.826;37.046;2023-06-14T09:36:31;42.91;10.59
70321;DHT22;61127;55.826;37.046;2023-06-14T09:38:59;43.39;9.09
70321;DHT22;61127;55.826;37.046;2023-06-14T09:41:33;0.00;0.00
70321;DHT22;61127;55.826;37.046;2023-06-14T09:44:00;0.00;0.00
70321;DHT22;61127;55.826;37.046;2023-06-14T09:46:30;0.00;0.00
70321;DHT22;61127;55.826;37.046;2023-06-14T09:49:00;0.00;0.00
70321;DHT22;61127;55.826;37.046;2023-06-14T09:51:27;0.00;0.00
70321;DHT22;61127;55.826;37.046;2023-06-14T09:54:00;0.00;0.00
70321;DHT22;61127;55.826;37.046;2023-06-14T09:56:35;0.00;0.00
70321;DHT22;61127;55.826;37.046;2023-06-14T09:59:04;0.00;0.00
70321;DHT22;61127;55.826;37.046;2023-06-14T10:01:31;0.00;0.00
70321;DHT22;61127;55.826;37.046;2023-06-14T10:04:03;0.00;0.00
70321;DHT22;61127;55.826;37.046;2023-06-14T10:06:31;0.00;0.00
70321;DHT22;61127;55.826;37.046;2023-06-14T10:08:58;0.00;0.00
70321;DHT22;61127;55.826;37.046;2023-06-14T10:11:28;0.00;0.00
70321;DHT22;61127;55.826;37.046;2023-06-14T10:13:58;0.00;0.00
70321;DHT22;61127;55.826;37.046;2023-06-14T10:16:31;0.00;0.00
70321;DHT22;61127;55.826;37.046;2023-06-14T10:21:49;0.00;0.00
70321;DHT22;61127;55.826;37.046;2023-06-14T10:24:19;0.00;0.00
70321;DHT22;61127;55.826;37.046;2023-06-14T10:26:52;0.00;0.00
70321;DHT22;61127;55.826;37.046;2023-06-14T10:29:18;0.00;0.00
70321;DHT22;61127;55.826;37.046;2023-06-14T10:34:12;0.00;0.00
70321;DHT22;61127;55.826;37.046;2023-06-14T10:36:42;0.00;0.00
70321;DHT22;61127;55.826;37.046;2023-06-14T10:39:12;0.00;0.00
70321;DHT22;61127;55.826;37.046;2023-06-14T10:41:41;0.00;0.00
70321;DHT22;61127;55.826;37.046;2023-06-14T10:46:40;0.00;0.00
70321;DHT22;61127;55.826;37.046;2023-06-14T10:49:06;0.00;0.00
70321;DHT22;61127;55.826;37.046;2023-06-14T10:51:41;0.00;0.00
70321;DHT22;61127;55.826;37.046;2023-06-14T10:54:14;0.00;0.00
70321;DHT22;61127;55.826;37.046;2023-06-14T10:56:47;0.00;0.00
70321;DHT22;61127;55.826;37.046;2023-06-14T10:59:14;0.00;0.00
70321;DHT22;61127;55.826;37.046;2023-06-14T11:04:53;0.00;0.00
70321;DHT22;61127;55.826;37.046;2023-06-14T11:10:41;0.00;0.00
70321;DHT22;61127;55.826;37.046;2023-06-14T11:13:07;0.00;0.00
70321;DHT22;61127;55.826;37.046;2023-06-14T11:15:35;0.00;0.00
70321;DHT22;61127;55.826;37.046;2023-06-14T11:18:06;0.00;0.00
70321;DHT22;61127;55.826;37.046;2023-06-14T11:20:34;0.00;0.00
70321;DHT22;61127;55.826;37.046;2023-06-14T11:23:01;0.00;0.00
70321;DHT22;61127;55.826;37.046;2023-06-14T11:25:28;0.00;0.00
70321;DHT22;61127;55.826;37.046;2023-06-14T11:27:54;0.00;0.00
70321;DHT22;61127;55.826;37.046;2023-06-14T11:30:22;0.00;0.00
70321;DHT22;61127;55.826;37.046;2023-06-14T11:32:49;0.00;0.00
70321;DHT22;61127;55.826;37.046;2023-06-14T11:35:16;0.00;0.00
70321;DHT22;61127;55.826;37.046;2023-06-14T11:37:43;0.00;0.00
70321;DHT22;61127;55.826;37.046;2023-06-14T11:40:11;0.00;0.00
70321;DHT22;61127;55.826;37.046;2023-06-14T11:42:39;0.00;0.00
70321;DHT22;61127;55.826;37.046;2023-06-14T11:45:09;0.00;0.00
70321;DHT22;61127;55.826;37.046;2023-06-14T11:47:37;0.00;0.00
70321;DHT22;61127;55.826;37.046;2023-06-14T11:50:06;0.00;0.00
70321;DHT22;61127;55.826;37.046;2023-06-14T11:52:32;0.00;0.00
70321;DHT22;61127;55.826;37.046;2023-06-14T11:54:58;0.00;0.00
70321;DHT22;61127;55.826;37.046;2023-06-14T11:57:25;0.00;0.00
70321;DHT22;61127;55.826;37.046;2023-06-14T11:59:51;0.00;0.00
70321;DHT22;61127;55.826;37.046;2023-06-14T12:02:19;0.00;0.00
70321;DHT22;61127;55.826;37.046;2023-06-14T12:04:47;0.00;0.00
70321;DHT22;61127;55.826;37.046;2023-06-14T12:07:17;0.00;0.00
70321;DHT22;61127;55.826;37.046;2023-06-14T12:12:22;0.00;0.00
70321;DHT22;61127;55.826;37.046;2023-06-14T12:14:48;0.00;0.00
70321;DHT22;61127;55.826;37.046;2023-06-14T12:17:18;0.00;0.00
70321;DHT22;61127;55.826;37.046;2023-06-14T12:19:45;0.00;0.00
70321;DHT22;61127;55.826;37.046;2023-06-14T12:22:12;50.30;2.66
70321;DHT22;61127;55.826;37.046;2023-06-14T12:24:39;50.75;2.92
70321;DHT22;61127;55.826;37.046;2023-06-14T12:27:08;51.27;2.77
70321;DHT22;61127;55.826;37.046;2023-06-14T12:29:34;51.66;2.66
70321;DHT22;61127;55.826;37.046;2023-06-14T12:32:01;0.00;0.00
70321;DHT22;61127;55.826;37.046;2023-06-14T12:34:27;0.00;0.00
70321;DHT22;61127;55.826;37.046;2023-06-14T12:36:54;0.00;0.00
70321;DHT22;61127;55.826;37.046;2023-06-14T12:39:20;0.00;0.00
70321;DHT22;61127;55.826;37.046;2023-06-14T12:41:47;0.00;0.00
70321;DHT22;61127;55.826;37.046;2023-06-14T12:44:14;50.76;2.48
70321;DHT22;61127;55.826;37.046;2023-06-14T12:46:44;50.56;2.22
70321;DHT22;61127;55.826;37.046;2023-06-14T12:49:11;50.73;2.47
70321;DHT22;61127;55.826;37.046;2023-06-14T12:51:38;50.47;2.65
70321;DHT22;61127;55.826;37.046;2023-06-14T12:54:05;50.51;2.69
70321;DHT22;61127;55.826;37.046;2023-06-14T12:56:31;50.94;2.59
70321;DHT22;61127;55.826;37.046;2023-06-14T12:58:58;51.08;2.34
70321;DHT22;61127;55.826;37.046;2023-06-14T13:01:24;50.90;2.56
70321;DHT22;61127;55.826;37.046;2023-06-14T13:03:50;50.06;2.79
70321;DHT22;61127;55.826;37.046;2023-06-14T13:06:23;49.77;2.61
70321;DHT22;61127;55.826;37.046;2023-06-14T13:08:49;49.86;2.84
70321;DHT22;61127;55.826;37.046;2023-06-14T13:11:16;49.88;2.30
70321;DHT22;61127;55.826;37.046;2023-06-14T13:13:42;49.91;2.47
70321;DHT22;61127;55.826;37.046;2023-06-14T13:16:08;49.75;1.94
70321;DHT22;61127;55.826;37.046;2023-06-14T13:18:34;48.12;1.71
70321;DHT22;61127;55.826;37.046;2023-06-14T13:21:00;46.06;2.32
70321;DHT22;61127;55.826;37.046;2023-06-14T13:23:27;43.50;3.41
70321;DHT22;61127;55.826;37.046;2023-06-14T13:25:53;41.60;4.15
70321;DHT22;61127;55.826;37.046;2023-06-14T13:28:19;40.30;4.99
70321;DHT22;61127;55.826;37.046;2023-06-14T13:30:46;38.99;6.34
70321;DHT22;61127;55.826;37.046;2023-06-14T13:33:13;37.71;6.70
70321;DHT22;61127;55.826;37.046;2023-06-14T13:35:39;36.67;7.26
70321;DHT22;61127;55.826;37.046;2023-06-14T13:38:05;35.70;8.50
70321;DHT22;61127;55.826;37.046;2023-06-14T13:40:31;35.38;8.91
70321;DHT22;61127;55.826;37.046;2023-06-14T13:42:58;34.61;9.47
70321;DHT22;61127;55.826;37.046;2023-06-14T13:45:24;34.14;9.64
70321;DHT22;61127;55.826;37.046;2023-06-14T13:47:50;33.75;10.32
70321;DHT22;61127;55.826;37.046;2023-06-14T13:50:17;33.48;10.53
70321;DHT22;61127;55.826;37.046;2023-06-14T13:52:43;33.13;11.23
70321;DHT22;61127;55.826;37.046;2023-06-14T13:55:09;32.86;12.32
70321;DHT22;61127;55.826;37.046;2023-06-14T13:57:35;32.47;11.46
70321;DHT22;61127;55.826;37.046;2023-06-14T14:00:02;32.13;11.64
70321;DHT22;61127;55.826;37.046;2023-06-14T14:02:39;31.70;12.35
70321;DHT22;61127;55.826;37.046;2023-06-14T14:05:09;31.10;13.02
70321;DHT22;61127;55.826;37.046;2023-06-14T14:07:35;30.76;12.16
70321;DHT22;61127;55.826;37.046;2023-06-14T14:10:02;30.36;13.40
70321;DHT22;61127;55.826;37.046;2023-06-14T14:12:31;30.09;13.97
70321;DHT22;61127;55.826;37.046;2023-06-14T14:14:57;29.87;13.29
70321;DHT22;61127;55.826;37.046;2023-06-14T14:17:23;29.59;13.81
70321;DHT22;61127;55.826;37.046;2023-06-14T14:19:49;29.30;13.49
70321;DHT22;61127;55.826;37.046;2023-06-14T14:22:16;28.93;13.59
70321;DHT22;61127;55.826;37.046;2023-06-14T14:24:41;28.62;13.99
70321;DHT22;61127;55.826;37.046;2023-06-14T14:27:07;28.31;13.53
70321;DHT22;61127;55.826;37.046;2023-06-14T14:29:33;28.02;15.13
70321;DHT22;61127;55.826;37.046;2023-06-14T14:32:01;27.79;14.58
70321;DHT22;61127;55.826;37.046;2023-06-14T14:34:27;27.52;14.34
70321;DHT22;61127;55.826;37.046;2023-06-14T14:36:53;27.23;15.29
70321;DHT22;61127;55.826;37.046;2023-06-14T14:39:20;27.10;16.10
70321;DHT22;61127;55.826;37.046;2023-06-14T14:41:46;27.01;15.25
70321;DHT22;61127;55.826;37.046;2023-06-14T14:44:12;26.94;15.80
70321;DHT22;61127;55.826;37.046;2023-06-14T14:46:38;26.83;16.44
70321;DHT22;61127;55.826;37.046;2023-06-14T14:49:04;26.73;16.86
70321;DHT22;61127;55.826;37.046;2023-06-14T14:51:31;26.66;16.50
70321;DHT22;61127;55.826;37.046;2023-06-14T14:53:57;26.58;16.39
70321;DHT22;61127;55.826;37.046;2023-06-14T14:56:23;26.53;16.51
70321;DHT22;61127;55.826;37.046;2023-06-14T14:58:49;26.43;16.30
70321;DHT22;61127;55.826;37.046;2023-06-14T15:01:16;26.32;16.61
70321;DHT22;61127;55.826;37.046;2023-06-14T15:03:42;26.17;18.36
70321;DHT22;61127;55.826;37.046;2023-06-14T15:06:08;26.06;19.20
70321;DHT22;61127;55.826;37.046;2023-06-14T15:08:33;25.97;18.98
70321;DHT22;61127;55.826;37.046;2023-06-14T15:11:00;25.88;17.09
70321;DHT22;61127;55.826;37.046;2023-06-14T15:13:27;25.75;18.66
70321;DHT22;61127;55.826;37.046;2023-06-14T15:15:53;25.61;19.40
70321;DHT22;61127;55.826;37.046;2023-06-14T15:18:20;25.53;19.93
70321;DHT22;61127;55.826;37.046;2023-06-14T15:20:47;25.49;19.62
70321;DHT22;61127;55.826;37.046;2023-06-14T15:23:13;25.38;19.75
70321;DHT22;61127;55.826;37.046;2023-06-14T15:25:46;25.29;20.02
70321;DHT22;61127;55.826;37.046;2023-06-14T15:28:14;25.25;20.48
70321;DHT22;61127;55.826;37.046;2023-06-14T15:30:40;25.21;18.36
70321;DHT22;61127;55.826;37.046;2023-06-14T15:33:06;25.15;19.53
70321;DHT22;61127;55.826;37.046;2023-06-14T15:35:32;25.08;20.27
70321;DHT22;61127;55.826;37.046;2023-06-14T15:37:58;25.03;20.61
70321;DHT22;61127;55.826;37.046;2023-06-14T15:40:25;24.98;20.97
70321;DHT22;61127;55.826;37.046;2023-06-14T15:42:51;24.91;20.95
70321;DHT22;61127;55.826;37.046;2023-06-14T15:45:17;24.86;20.94
70321;DHT22;61127;55.826;37.046;2023-06-14T15:47:43;24.80;19.90